createdAt,value
2023-01-05T00:01:56.459Z,95819.63
2023-01-05T00:05:39.185Z,95809.81
2023-01-05T00:09:24.476Z,95805.56
2023-01-05T00:13:24.714Z,95807.38
2023-01-05T00:17:25.709Z,95813.81
2023-01-05T00:21:31.376Z,95786.00
2023-01-05T00:25:17.667Z,95794.06
2023-01-05T00:29:00.384Z,95788.09
2023-01-05T00:32:43.844Z,95787.25
2023-01-05T00:36:26.538Z,95796.94
2023-01-05T00:40:11.847Z,95768.69
2023-01-05T00:43:55.899Z,95778.84
2023-01-05T00:47:38.609Z,95752.19
2023-01-05T00:51:21.290Z,95747.56
2023-01-05T00:55:03.992Z,95732.22
2023-01-05T00:58:46.656Z,95746.16
2023-01-05T01:02:31.057Z,95772.06
2023-01-05T01:06:14.057Z,95745.78
2023-01-05T01:09:57.254Z,95770.25
2023-01-05T01:13:39.966Z,95773.44
2023-01-05T01:17:22.629Z,95753.06
2023-01-05T01:21:07.144Z,95750.19
2023-01-05T01:24:49.817Z,95749.81
2023-01-05T01:28:32.513Z,95749.44
2023-01-05T01:32:15.443Z,95751.06
2023-01-05T01:35:58.465Z,95748.19
2023-01-05T01:39:42.596Z,95763.44
2023-01-05T01:43:44.118Z,95749.75
2023-01-05T01:47:34.697Z,95769.19
2023-01-05T01:51:19.649Z,95767.81
2023-01-05T01:55:05.787Z,95751.47
2023-01-05T01:58:48.776Z,95747.84
2023-01-05T02:02:31.677Z,95719.53
2023-01-05T02:06:14.640Z,95705.75
2023-01-05T02:09:57.361Z,95720.34
2023-01-05T02:13:51.052Z,95714.25
2023-01-05T02:17:42.542Z,95683.94
2023-01-05T02:21:33.954Z,95682.63
2023-01-05T02:25:32.426Z,95675.00
2023-01-05T02:29:59.597Z,95677.84
2023-01-05T02:33:55.759Z,95713.63
2023-01-05T02:37:42.714Z,95648.41
2023-01-05T02:41:29.816Z,95691.47
2023-01-05T02:45:13.007Z,95657.47
2023-01-05T02:48:59.550Z,95678.81
2023-01-05T02:52:48.793Z,95689.25
2023-01-05T02:56:35.465Z,95685.75
2023-01-05T03:00:21.251Z,95667.50
2023-01-05T03:04:08.724Z,95653.25
2023-01-05T03:07:52.437Z,95659.28
2023-01-05T03:11:57.050Z,95648.34
2023-01-05T03:15:41.160Z,95666.91
2023-01-05T03:19:39.821Z,95624.84
2023-01-05T03:23:40.880Z,95648.41
2023-01-05T03:27:41.760Z,95629.50
2023-01-05T03:31:43.707Z,95628.50
2023-01-05T03:35:33.693Z,95636.81
2023-01-05T03:39:16.919Z,95629.50
2023-01-05T03:42:59.702Z,95651.41
2023-01-05T03:46:42.448Z,95636.91
2023-01-05T03:50:25.181Z,95641.78
2023-01-05T03:54:09.217Z,95634.72
2023-01-05T03:57:54.889Z,95622.03
2023-01-05T04:01:38.837Z,95616.41
2023-01-05T04:05:22.052Z,95603.53
2023-01-05T04:09:04.956Z,95597.88
2023-01-05T04:12:49.998Z,95606.44
2023-01-05T04:16:33.022Z,95647.50
2023-01-05T04:20:16.228Z,95623.47
2023-01-05T04:23:58.924Z,95622.72
2023-01-05T04:27:41.611Z,95640.59
2023-01-05T04:31:25.772Z,95631.97
2023-01-05T04:35:11.507Z,95633.81
2023-01-05T04:38:54.387Z,95642.50
2023-01-05T04:42:37.111Z,95631.81
2023-01-05T04:46:19.889Z,95623.91
2023-01-05T04:50:07.074Z,95648.81
2023-01-05T04:53:49.738Z,95634.66
2023-01-05T04:57:32.545Z,95639.31
2023-01-05T05:01:15.384Z,95646.56
2023-01-05T05:04:58.238Z,95618.91
2023-01-05T05:08:42.309Z,95615.25
2023-01-05T05:12:27.201Z,95622.97
2023-01-05T05:16:10.164Z,95631.03
2023-01-05T05:19:52.904Z,95653.28
2023-01-05T05:23:35.521Z,95618.91
2023-01-05T05:27:19.590Z,95631.66
2023-01-05T05:31:02.393Z,95627.41
2023-01-05T05:34:45.172Z,95650.25
2023-01-05T05:38:27.883Z,95671.06
2023-01-05T05:42:10.549Z,95642.34
2023-01-05T05:45:54.632Z,95679.75
2023-01-05T05:49:37.277Z,95654.06
2023-01-05T05:53:19.970Z,95633.84
2023-01-05T05:57:02.721Z,95652.06
2023-01-05T06:00:45.713Z,95670.69
2023-01-05T06:04:29.968Z,95637.53
2023-01-05T06:08:12.703Z,95650.03
2023-01-05T06:11:55.348Z,95628.22
2023-01-05T06:15:40.899Z,95650.25
2023-01-05T06:19:26.201Z,95686.84
2023-01-05T06:23:10.379Z,95666.63
2023-01-05T06:26:53.057Z,95683.59
2023-01-05T06:30:35.684Z,95652.81
2023-01-05T06:34:18.448Z,95645.94
2023-01-05T06:38:01.255Z,95686.97
2023-01-05T06:41:45.361Z,95653.78
2023-01-05T06:45:28.161Z,95661.66
2023-01-05T06:49:12.284Z,95692.38
2023-01-05T06:52:54.986Z,95713.03
2023-01-05T06:56:40.903Z,95684.75
2023-01-05T07:00:25.037Z,95673.00
2023-01-05T07:04:07.838Z,95696.00
2023-01-05T07:07:52.854Z,95733.16
2023-01-05T07:11:35.598Z,95674.19
2023-01-05T07:15:20.028Z,95693.19
2023-01-05T07:19:04.114Z,95698.78
2023-01-05T07:22:46.791Z,95708.91
2023-01-05T07:26:29.578Z,95702.03
2023-01-05T07:30:13.473Z,95710.91
2023-01-05T07:33:56.231Z,95712.78
2023-01-05T07:37:40.287Z,95706.13
2023-01-05T07:41:23.027Z,95698.88
2023-01-05T07:45:06.794Z,95719.53
2023-01-05T07:48:49.535Z,95721.53
2023-01-05T07:52:33.175Z,95706.38
2023-01-05T07:56:17.265Z,95739.97
2023-01-05T08:00:00.070Z,95759.38
2023-01-05T08:03:42.782Z,95743.84
2023-01-05T08:07:25.539Z,95753.16
2023-01-05T08:11:09.734Z,95782.69
2023-01-05T08:14:53.823Z,95762.84
2023-01-05T08:18:36.544Z,95750.38
2023-01-05T08:22:21.064Z,95764.47
2023-01-05T08:26:06.535Z,95760.41
2023-01-05T08:29:49.316Z,95773.81
2023-01-05T08:33:36.483Z,95772.19
2023-01-05T08:37:19.434Z,95771.78
2023-01-05T08:41:02.137Z,95784.31
2023-01-05T08:44:44.905Z,95777.75
2023-01-05T08:48:27.616Z,95783.81
2023-01-05T08:52:11.730Z,95785.06
2023-01-05T08:55:54.444Z,95767.31
2023-01-05T08:59:37.192Z,95793.59
2023-01-05T09:03:20.030Z,95791.81
2023-01-05T09:07:02.828Z,95798.97
2023-01-05T09:10:47.248Z,95809.72
2023-01-05T09:14:30.212Z,95817.63
2023-01-05T09:18:13.510Z,95800.66
2023-01-05T09:21:58.052Z,95809.16
2023-01-05T09:25:40.814Z,95803.16
2023-01-05T09:29:24.942Z,95824.00
2023-01-05T09:33:07.595Z,95821.00
2023-01-05T09:36:50.291Z,95838.03
2023-01-05T09:40:38.210Z,95856.25
2023-01-05T09:44:29.895Z,95861.56
2023-01-05T09:48:15.114Z,95828.00
2023-01-05T09:52:01.830Z,95837.75
2023-01-05T09:55:45.251Z,95867.06
2023-01-05T09:59:31.534Z,95852.72
2023-01-05T10:03:44.864Z,95857.16
2023-01-05T10:07:26.124Z,95838.38
2023-01-05T10:11:30.852Z,95851.53
2023-01-05T10:15:17.567Z,95852.13
2023-01-05T10:19:03.542Z,95853.00
2023-01-05T10:22:54.903Z,95824.50
2023-01-05T10:27:14.447Z,95822.66
2023-01-05T10:30:56.576Z,95846.97
2023-01-05T10:34:53.642Z,95830.94
2023-01-05T10:38:47.979Z,95848.75
2023-01-05T10:42:45.375Z,95841.84
2023-01-05T10:46:37.824Z,95854.44
2023-01-05T10:50:37.909Z,95841.84
2023-01-05T10:54:31.211Z,95841.31
2023-01-05T10:58:22.924Z,95844.56
2023-01-05T11:02:13.460Z,95850.25
2023-01-05T11:05:56.160Z,95839.53
2023-01-05T11:09:40.722Z,95844.81
2023-01-05T11:13:31.179Z,95851.81
2023-01-05T11:17:19.483Z,95845.53
2023-01-05T11:21:07.153Z,95838.03
2023-01-05T11:24:51.029Z,95835.91
2023-01-05T11:28:35.325Z,95861.97
2023-01-05T11:32:19.591Z,95869.00
2023-01-05T11:36:02.599Z,95833.13
2023-01-05T11:39:50.521Z,95838.25
2023-01-05T11:43:37.039Z,95865.16
2023-01-05T11:47:24.986Z,95847.59
2023-01-05T11:51:08.612Z,95847.50
2023-01-05T11:54:51.609Z,95848.75
2023-01-05T11:58:36.056Z,95835.00
2023-01-05T12:02:50.996Z,95835.88
2023-01-05T12:06:52.908Z,95855.78
2023-01-05T12:10:56.752Z,95831.38
2023-01-05T12:14:53.683Z,95829.25
2023-01-05T12:19:02.697Z,95831.38
2023-01-05T12:23:03.936Z,95820.47
2023-01-05T12:26:54.514Z,95830.09
2023-01-05T12:32:41.035Z,95826.94
2023-01-05T12:35:04.613Z,95827.41
2023-01-05T12:38:49.779Z,95830.31
2023-01-05T12:42:43.257Z,95859.69
2023-01-05T12:46:33.728Z,95833.66
2023-01-05T12:50:30.068Z,95840.34
2023-01-05T12:54:29.259Z,95832.44
2023-01-05T12:58:16.110Z,95829.38
2023-01-05T13:02:06.056Z,95842.13
2023-01-05T13:05:56.500Z,95844.69
2023-01-05T13:09:39.807Z,95838.03
2023-01-05T13:13:26.727Z,95842.06
2023-01-05T13:17:18.347Z,95848.56
2023-01-05T13:21:08.179Z,95851.19
2023-01-05T13:24:58.938Z,95839.06
2023-01-05T13:28:44.749Z,95869.44
2023-01-05T13:32:40.944Z,95863.72
2023-01-05T13:36:38.325Z,95838.56
2023-01-05T13:40:45.856Z,95862.81
2023-01-05T13:44:51.528Z,95872.94
2023-01-05T13:48:58.136Z,95869.69
2023-01-05T13:53:00.684Z,95879.97
2023-01-05T13:56:46.590Z,95874.47
2023-01-05T14:00:31.635Z,95868.81
2023-01-05T14:04:19.577Z,95878.97
2023-01-05T14:08:09.056Z,95881.34
2023-01-05T14:12:43.936Z,95885.13
2023-01-05T14:16:54.911Z,95895.81
2023-01-05T14:20:44.629Z,95902.25
2023-01-05T14:24:34.518Z,95890.09
2023-01-05T14:28:43.397Z,95884.84
2023-01-05T14:32:27.531Z,95910.03
2023-01-05T14:36:24.851Z,95908.41
2023-01-05T14:40:25.107Z,95917.47
2023-01-05T14:44:17.206Z,95910.88
2023-01-05T14:48:02.996Z,95917.28
2023-01-05T14:51:54.899Z,95924.59
2023-01-05T14:55:40.419Z,95915.88
2023-01-05T14:59:25.512Z,95920.09
2023-01-05T15:03:22.347Z,95938.47
2023-01-05T15:07:16.587Z,95931.50
2023-01-05T15:11:19.354Z,95928.97
2023-01-05T15:15:22.826Z,95951.63
2023-01-05T15:19:19.383Z,95954.63
2023-01-05T15:23:12.684Z,95939.34
2023-01-05T15:27:07.058Z,95951.50
2023-01-05T15:31:14.685Z,95939.34
2023-01-05T15:35:02.813Z,95949.50
2023-01-05T15:38:47.075Z,95943.34
2023-01-05T15:42:38.554Z,95940.47
2023-01-05T15:46:23.845Z,95951.31
2023-01-05T15:50:16.370Z,95949.31
2023-01-05T15:54:00.197Z,95958.09
2023-01-05T15:57:44.343Z,95958.19
2023-01-05T16:01:27.698Z,95968.25
2023-01-05T16:05:12.757Z,95973.50
2023-01-05T16:08:57.657Z,95975.69
2023-01-05T16:12:40.437Z,95972.69
2023-01-05T16:16:50.674Z,95976.66
2023-01-05T16:20:29.766Z,95964.53
2023-01-05T16:24:18.039Z,95979.03
2023-01-05T16:28:03.477Z,95974.50
2023-01-05T16:31:54.750Z,95986.09
2023-01-05T16:35:46.089Z,95992.34
2023-01-05T16:39:34.155Z,95987.69
2023-01-05T16:43:21.120Z,95986.31
2023-01-05T16:47:09.838Z,95991.91
2023-01-05T16:50:57.159Z,96000.78
2023-01-05T16:54:41.602Z,95986.09
2023-01-05T16:58:42.215Z,95998.84
2023-01-05T17:02:43.073Z,96000.25
2023-01-05T17:06:28.627Z,95999.78
2023-01-05T17:10:17.720Z,95991.75
2023-01-05T17:14:01.885Z,95987.19
2023-01-05T17:17:47.409Z,96002.25
2023-01-05T17:21:31.910Z,95992.75
2023-01-05T17:25:15.322Z,96007.69
2023-01-05T17:28:59.950Z,96011.09
2023-01-05T17:32:42.617Z,96004.88
2023-01-05T17:36:30.230Z,96019.97
2023-01-05T17:40:18.155Z,96017.69
2023-01-05T17:44:00.922Z,96019.34
2023-01-05T17:47:43.903Z,96025.56
2023-01-05T17:51:28.288Z,96012.09
2023-01-05T17:55:12.217Z,96024.56
2023-01-05T17:58:55.301Z,96027.00
2023-01-05T18:02:38.488Z,96022.28
2023-01-05T18:06:21.263Z,96034.41
2023-01-05T18:13:54.458Z,96017.97
2023-01-05T18:17:37.470Z,96023.56
2023-01-05T18:21:20.180Z,96024.84
2023-01-05T18:25:03.426Z,96015.81
2023-01-05T18:28:47.436Z,96012.38
2023-01-05T18:36:18.187Z,96026.22
2023-01-05T18:40:00.935Z,96020.16
2023-01-05T18:43:43.654Z,96015.06
2023-01-05T18:47:28.027Z,96018.78
2023-01-05T18:51:10.986Z,96018.53
2023-01-05T18:54:54.653Z,96002.34
2023-01-05T18:58:37.425Z,96022.09
2023-01-05T19:02:20.105Z,96022.72
2023-01-05T19:06:07.546Z,96018.75
2023-01-05T19:09:50.287Z,96016.66
2023-01-05T19:13:32.989Z,96020.09
2023-01-05T19:17:15.680Z,96010.47
2023-01-05T19:20:59.208Z,96016.63
2023-01-05T19:24:43.199Z,96017.44
2023-01-05T19:28:25.850Z,96011.03
2023-01-05T19:32:08.563Z,96010.03
2023-01-05T19:35:51.435Z,96022.22
2023-01-05T19:39:34.634Z,96015.72
2023-01-05T19:43:18.644Z,96010.56
2023-01-05T19:47:01.342Z,96014.63
2023-01-05T19:50:43.949Z,96021.53
2023-01-05T19:54:26.824Z,96007.59
2023-01-05T19:58:09.792Z,96016.88
2023-01-05T20:01:56.157Z,96019.25
2023-01-05T20:05:39.064Z,96015.75
2023-01-05T20:09:22.114Z,96006.06
2023-01-05T20:13:04.848Z,96001.75
2023-01-05T20:16:49.626Z,96000.13
2023-01-05T20:20:33.640Z,95986.41
2023-01-05T20:24:18.379Z,95987.22
2023-01-05T20:28:01.013Z,96005.13
2023-01-05T20:31:45.378Z,95995.00
2023-01-05T20:35:28.114Z,95993.09
2023-01-05T20:39:13.492Z,96012.72
2023-01-05T20:42:56.122Z,96000.78
2023-01-05T20:46:41.556Z,96003.59
2023-01-05T20:50:27.007Z,96000.16
2023-01-05T20:54:10.662Z,96006.84
2023-01-05T20:57:54.746Z,96009.75
2023-01-05T21:01:37.649Z,96014.28
2023-01-05T21:05:20.410Z,96015.63
2023-01-05T21:09:03.290Z,96016.97
2023-01-05T21:12:45.948Z,96018.22
2023-01-05T21:16:32.000Z,96029.00
2023-01-05T21:20:14.701Z,96010.66
2023-01-05T21:23:59.239Z,96023.75
2023-01-05T21:27:43.990Z,96024.09
2023-01-05T21:31:27.558Z,96036.16
2023-01-05T21:35:11.909Z,96029.44
2023-01-05T21:39:02.401Z,96032.81
2023-01-05T21:42:50.032Z,96028.63
2023-01-05T21:46:32.676Z,96027.56
2023-01-05T21:50:36.998Z,96036.44
2023-01-05T21:54:37.451Z,96045.66
2023-01-05T21:58:20.200Z,96037.16
2023-01-05T22:02:03.161Z,96042.41
2023-01-05T22:05:51.223Z,96039.94
2023-01-05T22:09:33.891Z,96040.31
2023-01-05T22:13:16.615Z,96038.84
2023-01-05T22:16:59.306Z,96035.25
2023-01-05T22:20:41.972Z,96032.63
2023-01-05T22:24:26.037Z,96028.88
2023-01-05T22:28:09.035Z,96028.03
2023-01-05T22:31:51.867Z,96020.34
2023-01-05T22:35:34.584Z,96034.94
2023-01-05T22:39:17.668Z,96022.78
2023-01-05T22:43:05.568Z,96024.78
2023-01-05T22:46:48.245Z,96031.19
2023-01-05T22:50:30.980Z,96025.13
2023-01-05T22:54:13.772Z,96033.66
2023-01-05T22:57:59.332Z,96021.47
2023-01-05T23:01:47.446Z,96025.72
2023-01-05T23:05:30.146Z,96023.28
2023-01-05T23:09:15.915Z,96020.16
2023-01-05T23:12:58.586Z,96020.34
2023-01-05T23:16:41.548Z,96018.72
2023-01-05T23:20:28.263Z,96020.53
2023-01-05T23:24:11.011Z,96014.28
2023-01-05T23:27:55.101Z,96003.59
2023-01-05T23:31:37.755Z,96002.78
2023-01-05T23:35:20.615Z,95999.84
2023-01-05T23:39:04.807Z,96009.63
2023-01-05T23:42:47.659Z,96001.38
2023-01-05T23:46:31.288Z,95996.84
2023-01-05T23:50:13.998Z,95990.03
2023-01-05T23:53:58.001Z,95999.25
2023-01-05T23:57:42.347Z,95992.72
